PASIPAJN

Guest
Details From PASI - SITKA ROCKY GUTIERREZ
To PAJN - Juneau Intl
Flight Number -
Tags generated
Created
Modified
Stats Distance 84 nm / 156 km
Max Altitude 7,900 ft / 2,408 m
Waypoints 3
Social Downloads 2
Likes 0
Share VATSIM

Download

Looking for another format? Having issues loading an existing format? Contact us
Advertisement - Login to hide

Notes

Basic altitude profile: - Ascent Rate: 2500ft/min - Ascent Speed: 250kts - Cruise Altitude: 35000ft - Cruise Speed: 420kts - Descent Rate: 1500ft/min - Descent Speed: 250kts Options: - Use NATs: yes - Use PACOTS: yes - Use low airways: yes - Use high airways: yes

Route

PASI HOODS PAJN

ID Type Via Altitude Latitude Longitude Leg Dist Tot Dist Heading (true) Name
O PASI APT - 0 ft / 0 m 57.04713˚ -135.36160˚ - 0 nm - SITKA ROCKY GUTIERREZ
HOODS FIX - 7,900 ft / 2,408 m 57.74293˚ -134.68157˚ 47 nm 47 nm 27° / 28° -
O PAJN APT - 0 ft / 0 m 58.35496˚ -134.57628˚ 36 nm 84 nm 5° / 5° Juneau Intl

Altitude Profile

Advertisement - Login to hide

PASI

Details ICAO PASI (SIT)
Name SITKA ROCKY GUTIERREZ
Region USA (Alaska)
Timezone America/Juneau (UTC-9.0)
Stats Elevation 21 ft / 6 m (AMSL)
Location 57.047128° -135.361597°
Runways 1
Magnetic Variation 18.750° E

METAR

PASI 160253Z 13010KT 10SM BKN034 05/02 A2997

Decode

TAF

PASI 152342Z 1600/1624 10008KT P6SM BKN035 OVC050 FM160600 12015G25KT P6SM -RA BKN030 OVC050 FM161000 12020G30KT 6SM -RA BR SCT015 OVC025 FM161500 14018G28KT 4SM RA BR BKN008 OVC015 FM162000 20012KT 6SM -RA SCT010 OVC020

Decode

Departure Runways

ID Width Length Bearing (true) Bearing (mag) Surface Threshold Offset Overrun Length
11 150 ft / 46 m 6,485 ft / 1,977 m 135.57° 116.82° Asphalt 0 ft / 0 m 0 ft / 0 m
29 150 ft / 46 m 6,485 ft / 1,977 m 315.59° 296.84° Asphalt 0 ft / 0 m 0 ft / 0 m

PAJN

Details ICAO PAJN (JNU)
Name Juneau Intl
Region USA (Alaska)
Timezone America/Juneau (UTC-9.0)
Stats Elevation 21 ft / 6 m (AMSL)
Location 58.354964° -134.576278°
Runways 1
Magnetic Variation 19.147° E

METAR

PAJN 160253Z 09009KT 10SM FEW008 SCT026 BKN080 03/03 A2999

Decode

TAF

TAF PAJN 152342Z 1600/1624 09006KT P6SM FEW011 BKN035 OVC050 FM160600 10010KT P6SM -RA BKN030 OVC050 FM160900 11018G28KT 5SM -RA BR SCT015 OVC030 FM161200 11022G32KT 3SM RA BR BKN008 OVC015 FM162200 11012KT 4SM -RA BR SCT008 OVC015

Decode

Destination Runways

ID Width Length Bearing (true) Bearing (mag) Surface Threshold Offset Overrun Length
08 150 ft / 46 m 8,430 ft / 2,570 m 104.87° 85.72° Asphalt 0 ft / 0 m 450 ft / 137 m
26 150 ft / 46 m 8,430 ft / 2,570 m 284.90° 265.75° Asphalt 0 ft / 0 m 225 ft / 69 m

Approach Navaids

Runway Type Ident Frequency Range Bearing (true) Bearing (mag) Slope Elevation
08 Localiser IJDL 109.90 MHz 18 nm / 33 km 84.92° 65.77° - 21 ft / 6 m (AMSL)
08 DME IJDL 109.90 MHz 18 nm / 33 km - - - 175 ft / 53 m (AMSL)

Popular Alternatives